createdAt,value
2022-08-05T00:00:48.418Z,5.93
2022-08-05T00:03:17.020Z,4.45
2022-08-05T00:06:04.837Z,4.25
2022-08-05T00:08:34.555Z,7.32
2022-08-05T00:11:03.503Z,6.22
2022-08-05T00:13:39.667Z,6.72
2022-08-05T00:16:12.917Z,6.15
2022-08-05T00:18:41.092Z,4.18
2022-08-05T00:21:09.324Z,3.67
2022-08-05T00:23:46.365Z,4.00
2022-08-05T00:26:20.241Z,3.80
2022-08-05T00:28:46.868Z,5.70
2022-08-05T00:31:16.166Z,5.15
2022-08-05T00:34:53.259Z,5.88
2022-08-05T00:37:10.880Z,4.18
2022-08-05T00:39:18.754Z,7.45
2022-08-05T00:41:52.043Z,4.47
2022-08-05T00:44:23.192Z,8.70
2022-08-05T00:46:54.263Z,5.03
2022-08-05T00:49:32.764Z,6.78
2022-08-05T00:52:11.119Z,5.18
2022-08-05T00:54:38.599Z,3.90
2022-08-05T00:57:05.194Z,3.33
2022-08-05T00:59:42.096Z,5.93
2022-08-05T01:02:11.430Z,4.03
2022-08-05T01:04:42.227Z,3.40
2022-08-05T01:07:13.737Z,5.88
2022-08-05T01:09:41.882Z,3.38
2022-08-05T01:12:18.652Z,3.13
2022-08-05T01:14:51.887Z,3.35
2022-08-05T01:17:27.561Z,6.22
2022-08-05T01:20:03.676Z,3.88
2022-08-05T01:22:49.701Z,4.45
2022-08-05T01:25:39.924Z,3.80
2022-08-05T01:28:23.175Z,6.88
2022-08-05T01:30:57.183Z,4.80
2022-08-05T01:33:28.395Z,9.02
2022-08-05T01:36:05.822Z,4.90
2022-08-05T01:38:40.211Z,7.85
2022-08-05T01:41:07.658Z,7.03
2022-08-05T01:43:35.723Z,4.18
2022-08-05T01:46:07.358Z,5.25
2022-08-05T01:48:44.341Z,3.38
2022-08-05T01:51:12.537Z,4.20
2022-08-05T01:53:57.327Z,7.93
2022-08-05T01:58:10.982Z,4.38
2022-08-05T01:59:15.496Z,6.22
2022-08-05T02:01:43.093Z,3.05
2022-08-05T02:04:10.664Z,4.13
2022-08-05T02:06:38.954Z,5.38
2022-08-05T02:09:06.322Z,4.40
2022-08-05T02:11:42.308Z,5.60
2022-08-05T02:14:20.347Z,5.35
2022-08-05T02:16:54.539Z,6.47
2022-08-05T02:19:27.281Z,4.57
2022-08-05T02:22:06.293Z,7.72
2022-08-05T02:24:36.967Z,5.80
2022-08-05T02:27:10.124Z,5.03
2022-08-05T02:29:59.452Z,5.00
2022-08-05T02:32:30.550Z,7.78
2022-08-05T02:35:13.424Z,5.85
2022-08-05T02:37:42.641Z,9.57
2022-08-05T02:40:16.116Z,5.75
2022-08-05T02:42:43.033Z,4.40
2022-08-05T02:45:20.359Z,8.30
2022-08-05T02:48:07.591Z,8.40
2022-08-05T02:50:43.940Z,14.25
2022-08-05T02:53:16.035Z,3.65
2022-08-05T02:55:52.113Z,5.38
2022-08-05T02:58:23.172Z,6.35
2022-08-05T03:00:55.350Z,3.33
2022-08-05T03:03:23.683Z,6.55
2022-08-05T03:06:54.423Z,6.07
2022-08-05T03:08:38.739Z,4.93
2022-08-05T03:11:56.943Z,5.18
2022-08-05T03:14:13.503Z,6.68
2022-08-05T03:16:40.567Z,6.70
2022-08-05T03:19:12.956Z,8.77
2022-08-05T03:21:48.856Z,7.68
2022-08-05T03:24:17.645Z,5.55
2022-08-05T03:26:54.241Z,9.80
2022-08-05T03:29:24.620Z,7.53
2022-08-05T03:32:11.922Z,5.97
2022-08-05T03:34:41.717Z,6.88
2022-08-05T03:37:08.416Z,8.02
2022-08-05T03:39:58.430Z,4.13
2022-08-05T03:42:27.196Z,6.28
2022-08-05T03:44:55.803Z,5.53
2022-08-05T03:47:24.108Z,6.63
2022-08-05T03:49:52.524Z,7.80
2022-08-05T03:52:48.980Z,4.97
2022-08-05T03:56:05.655Z,5.38
2022-08-05T03:58:00.823Z,5.30
2022-08-05T04:00:31.345Z,7.38
2022-08-05T04:03:03.014Z,6.82
2022-08-05T04:05:33.914Z,6.43
2022-08-05T04:08:05.471Z,10.55
2022-08-05T04:10:37.933Z,5.88
2022-08-05T04:13:06.270Z,6.40
2022-08-05T04:15:36.029Z,8.00
2022-08-05T04:18:09.555Z,6.10
2022-08-05T04:20:41.108Z,4.95
2022-08-05T04:23:12.220Z,5.20
2022-08-05T04:25:57.301Z,6.90
2022-08-05T04:28:30.863Z,9.15
2022-08-05T04:30:58.603Z,9.60
2022-08-05T04:33:54.787Z,9.13
2022-08-05T04:36:44.624Z,8.70
2022-08-05T04:39:02.778Z,6.63
2022-08-05T04:41:36.590Z,8.95
2022-08-05T04:44:09.093Z,6.40
2022-08-05T04:46:36.787Z,7.40
2022-08-05T04:49:03.471Z,9.73
2022-08-05T04:51:30.396Z,6.28
2022-08-05T04:53:57.523Z,4.07
2022-08-05T04:56:34.987Z,9.77
2022-08-05T04:59:22.315Z,6.00
2022-08-05T05:02:06.874Z,3.47
2022-08-05T05:04:35.077Z,4.35
2022-08-05T05:07:05.100Z,5.00
2022-08-05T05:09:37.360Z,6.78
2022-08-05T05:12:05.178Z,7.55
2022-08-05T05:14:32.925Z,5.88
2022-08-05T05:17:03.713Z,10.52
2022-08-05T05:19:37.296Z,6.80
2022-08-05T05:22:24.193Z,8.93
2022-08-05T05:24:58.764Z,6.15
2022-08-05T05:27:45.090Z,7.50
2022-08-05T05:30:30.802Z,9.20
2022-08-05T05:33:08.805Z,5.95
2022-08-05T05:35:42.597Z,7.95
2022-08-05T05:38:12.906Z,5.95
2022-08-05T05:40:47.956Z,7.07
2022-08-05T05:43:27.679Z,7.05
2022-08-05T05:46:03.539Z,8.88
2022-08-05T05:48:32.101Z,6.55
2022-08-05T05:51:13.048Z,8.18
2022-08-05T05:53:54.184Z,5.75
2022-08-05T05:56:31.603Z,6.38
2022-08-05T05:59:03.260Z,5.75
2022-08-05T06:01:37.945Z,5.63
2022-08-05T06:04:12.898Z,7.82
2022-08-05T06:06:47.423Z,6.97
2022-08-05T06:09:17.024Z,7.25
2022-08-05T06:11:59.121Z,7.47
2022-08-05T06:14:29.160Z,6.20
2022-08-05T06:16:57.042Z,4.68
2022-08-05T06:19:34.079Z,8.65
2022-08-05T06:22:00.973Z,7.95
2022-08-05T06:24:27.513Z,5.80
2022-08-05T06:26:54.080Z,5.60
2022-08-05T06:29:25.207Z,6.13
2022-08-05T06:32:21.043Z,9.05
2022-08-05T06:34:54.157Z,9.85
2022-08-05T06:37:52.300Z,7.20
2022-08-05T06:40:13.712Z,11.18
2022-08-05T06:42:40.484Z,8.70
2022-08-05T06:45:08.510Z,8.57
2022-08-05T06:48:36.810Z,5.53
2022-08-05T06:50:22.727Z,7.43
2022-08-05T06:52:58.742Z,11.32
2022-08-05T06:55:30.249Z,7.57
2022-08-05T06:58:20.316Z,9.60
2022-08-05T07:00:49.646Z,10.38
2022-08-05T07:03:17.047Z,9.52
2022-08-05T07:05:43.797Z,6.43
2022-08-05T07:08:12.882Z,9.43
2022-08-05T07:10:39.878Z,7.82
2022-08-05T07:13:58.489Z,7.75
2022-08-05T07:17:57.076Z,8.05
2022-08-05T07:20:16.850Z,7.35
2022-08-05T07:22:17.496Z,9.63
2022-08-05T07:24:53.578Z,10.60
2022-08-05T07:27:20.321Z,7.72
2022-08-05T07:30:23.793Z,12.10
2022-08-05T07:32:35.553Z,11.00
2022-08-05T07:36:03.459Z,24.00
2022-08-05T07:37:59.659Z,13.82
2022-08-05T07:40:32.931Z,18.70
2022-08-05T07:43:00.001Z,10.02
2022-08-05T07:45:56.664Z,13.45
2022-08-05T07:49:00.843Z,15.98
2022-08-05T07:51:05.536Z,7.78
2022-08-05T07:53:51.599Z,15.63
2022-08-05T07:57:00.836Z,22.13
2022-08-05T07:59:05.369Z,18.92
2022-08-05T08:01:35.514Z,21.08
2022-08-05T08:04:34.379Z,16.02
2022-08-05T08:07:05.392Z,12.15
2022-08-05T08:09:32.333Z,10.07
2022-08-05T08:11:59.912Z,19.02
2022-08-05T08:14:28.607Z,9.93
2022-08-05T08:16:58.178Z,9.82
2022-08-05T08:20:00.446Z,12.27
2022-08-05T08:22:12.329Z,11.35
2022-08-05T08:24:51.481Z,6.78
2022-08-05T08:27:18.822Z,9.75
2022-08-05T08:30:05.640Z,6.15
2022-08-05T08:32:33.874Z,8.68
2022-08-05T08:35:07.540Z,7.40
2022-08-05T08:40:07.302Z,11.48
2022-08-05T08:42:50.434Z,9.00
2022-08-05T08:45:26.759Z,10.73
2022-08-05T08:48:07.157Z,8.85
2022-08-05T08:51:22.997Z,9.02
2022-08-05T08:53:36.168Z,7.72
2022-08-05T08:56:06.635Z,9.13
2022-08-05T08:58:37.188Z,9.27
2022-08-05T09:01:16.301Z,10.23
2022-08-05T09:03:45.254Z,7.93
2022-08-05T09:06:17.174Z,8.82
2022-08-05T09:08:46.916Z,5.53
2022-08-05T09:11:15.175Z,3.22
2022-08-05T09:14:09.336Z,8.95
2022-08-05T09:16:30.021Z,7.00
2022-08-05T09:18:59.290Z,3.95
2022-08-05T09:22:22.145Z,7.05
2022-08-05T09:24:15.311Z,10.52
2022-08-05T09:26:43.676Z,5.63
2022-08-05T09:29:10.922Z,8.88
2022-08-05T09:32:41.920Z,4.30
2022-08-05T09:34:52.189Z,7.85
2022-08-05T09:38:12.808Z,5.75
2022-08-05T09:40:29.099Z,4.90
2022-08-05T09:42:55.721Z,5.53
2022-08-05T09:46:06.996Z,9.25
2022-08-05T09:48:21.796Z,5.10
2022-08-05T09:51:01.653Z,5.15
2022-08-05T09:53:53.148Z,5.53
2022-08-05T09:56:26.226Z,5.97
2022-08-05T09:58:56.679Z,3.40
2022-08-05T10:01:32.069Z,9.25
2022-08-05T10:04:04.537Z,7.82
2022-08-05T10:06:40.563Z,6.45
2022-08-05T10:09:24.980Z,2.97
2022-08-05T10:11:54.601Z,2.72
2022-08-05T10:14:30.227Z,8.85
2022-08-05T10:17:37.994Z,6.97
2022-08-05T10:20:10.849Z,6.88
2022-08-05T10:22:48.692Z,5.15
2022-08-05T10:25:19.062Z,5.18
2022-08-05T10:28:09.325Z,6.75
2022-08-05T10:31:20.651Z,3.97
2022-08-05T10:33:23.362Z,3.83
2022-08-05T10:35:59.013Z,5.45
2022-08-05T10:38:28.248Z,3.70
2022-08-05T10:41:07.730Z,14.80
2022-08-05T10:43:38.192Z,10.35
2022-08-05T10:46:07.520Z,14.85
2022-08-05T10:48:52.372Z,8.25
2022-08-05T10:51:28.440Z,7.60
2022-08-05T10:54:01.710Z,6.97
2022-08-05T10:56:44.433Z,8.93
2022-08-05T11:00:01.265Z,12.30
2022-08-05T11:02:38.494Z,11.82
2022-08-05T11:04:56.970Z,11.27
2022-08-05T11:07:33.316Z,8.88
2022-08-05T11:10:21.766Z,9.57
2022-08-05T11:12:50.299Z,10.07
2022-08-05T11:15:23.111Z,4.80
2022-08-05T11:18:06.881Z,3.38
2022-08-05T11:20:44.016Z,5.57
2022-08-05T11:23:26.300Z,7.03
2022-08-05T11:26:28.583Z,5.95
2022-08-05T11:29:11.879Z,8.27
2022-08-05T11:31:58.376Z,5.05
2022-08-05T11:34:38.283Z,4.05
2022-08-05T11:38:14.270Z,9.23
2022-08-05T11:40:00.808Z,3.08
2022-08-05T11:42:31.537Z,4.60
2022-08-05T11:45:02.423Z,6.82
2022-08-05T11:47:49.570Z,4.75
2022-08-05T11:50:17.469Z,5.38
2022-08-05T11:52:46.117Z,6.15
2022-08-05T11:55:16.432Z,3.33
2022-08-05T11:58:10.567Z,3.70
2022-08-05T12:00:32.687Z,3.97
2022-08-05T12:03:29.374Z,7.72
2022-08-05T12:05:59.421Z,4.00
2022-08-05T12:08:26.594Z,4.03
2022-08-05T12:10:53.739Z,7.32
2022-08-05T12:13:47.774Z,6.10
2022-08-05T12:16:15.455Z,3.45
2022-08-05T12:18:49.608Z,5.82
2022-08-05T12:21:21.020Z,5.93
2022-08-05T12:23:54.008Z,3.67
2022-08-05T12:26:21.304Z,4.60
2022-08-05T12:28:49.760Z,3.08
2022-08-05T12:31:28.047Z,4.68
2022-08-05T12:34:06.095Z,2.97
2022-08-05T12:36:35.977Z,3.45
2022-08-05T12:39:06.880Z,3.13
2022-08-05T12:41:34.863Z,4.95
2022-08-05T12:44:11.619Z,3.60
2022-08-05T12:46:41.597Z,3.10
2022-08-05T12:49:14.605Z,2.30
2022-08-05T12:52:14.492Z,5.07
2022-08-05T12:54:35.412Z,4.07
2022-08-05T12:57:09.466Z,2.20
2022-08-05T13:00:08.723Z,3.38
2022-08-05T13:02:30.823Z,2.33
2022-08-05T13:04:57.729Z,3.38
2022-08-05T13:07:55.757Z,5.78
2022-08-05T13:10:14.009Z,4.07
2022-08-05T13:12:42.709Z,3.80
2022-08-05T13:15:41.310Z,4.22
2022-08-05T13:18:19.411Z,4.20
2022-08-05T13:20:47.106Z,1.85
2022-08-05T13:23:13.784Z,3.35
2022-08-05T13:25:52.253Z,1.95
2022-08-05T13:28:26.786Z,2.90
2022-08-05T13:30:53.689Z,1.33
2022-08-05T13:34:23.129Z,2.45
2022-08-05T13:36:11.273Z,2.75
2022-08-05T13:38:42.443Z,1.33
2022-08-05T13:41:11.072Z,2.15
2022-08-05T13:43:45.582Z,3.78
2022-08-05T13:46:44.043Z,1.35
2022-08-05T13:49:10.182Z,1.52
2022-08-05T13:51:40.927Z,1.73
2022-08-05T13:54:11.702Z,2.25
2022-08-05T13:56:40.121Z,2.17
2022-08-05T13:59:24.167Z,2.40
2022-08-05T14:04:42.264Z,2.20
2022-08-05T14:07:25.079Z,3.25
2022-08-05T14:09:56.237Z,1.27
2022-08-05T14:12:32.533Z,2.38
2022-08-05T14:14:59.663Z,1.30
2022-08-05T14:17:28.412Z,1.77
2022-08-05T14:19:59.605Z,1.35
2022-08-05T14:22:30.297Z,2.35
2022-08-05T14:25:01.064Z,5.35
2022-08-05T14:27:28.377Z,4.00
2022-08-05T14:29:55.088Z,2.22
2022-08-05T14:32:27.040Z,2.00
2022-08-05T14:34:54.659Z,2.70
2022-08-05T14:37:23.653Z,3.42
2022-08-05T14:40:10.584Z,0.73
2022-08-05T14:42:43.732Z,4.85
2022-08-05T14:45:10.581Z,3.00
2022-08-05T14:48:05.389Z,1.58
2022-08-05T14:50:25.360Z,2.15
2022-08-05T14:52:56.811Z,2.58
2022-08-05T14:55:24.813Z,1.88
2022-08-05T14:57:55.992Z,1.55
2022-08-05T15:00:27.952Z,0.90
2022-08-05T15:02:55.073Z,2.47
2022-08-05T15:05:21.819Z,1.40
2022-08-05T15:08:05.379Z,3.20
2022-08-05T15:10:39.036Z,0.73
2022-08-05T15:13:06.224Z,2.83
2022-08-05T15:15:55.420Z,2.30
2022-08-05T15:18:23.368Z,3.45
2022-08-05T15:20:50.058Z,3.95
2022-08-05T15:23:17.657Z,3.95
2022-08-05T15:25:52.168Z,3.30
2022-08-05T15:28:22.980Z,2.67
2022-08-05T15:34:04.848Z,3.65
2022-08-05T15:36:16.803Z,4.50
2022-08-05T15:38:44.780Z,4.25
2022-08-05T15:41:23.059Z,2.92
2022-08-05T15:43:51.400Z,2.95
2022-08-05T15:46:19.779Z,2.38
2022-08-05T15:48:52.771Z,3.33
2022-08-05T15:52:12.940Z,2.45
2022-08-05T15:54:15.121Z,3.05
2022-08-05T15:56:42.342Z,4.28
2022-08-05T15:59:10.151Z,2.13
2022-08-05T16:01:52.635Z,2.50
2022-08-05T16:04:20.855Z,3.08
2022-08-05T16:06:53.002Z,4.20
2022-08-05T16:09:22.074Z,2.92
2022-08-05T16:11:52.811Z,3.50
2022-08-05T16:14:20.033Z,4.10
2022-08-05T16:16:47.196Z,1.90
2022-08-05T16:19:25.660Z,2.55
2022-08-05T16:22:03.293Z,3.47
2022-08-05T16:24:41.366Z,2.83
2022-08-05T16:27:17.593Z,3.70
2022-08-05T16:29:50.856Z,3.72
2022-08-05T16:32:18.177Z,3.05
2022-08-05T16:34:55.645Z,5.47
2022-08-05T16:38:01.982Z,2.35
2022-08-05T16:40:10.214Z,4.10
2022-08-05T16:42:51.775Z,2.10
2022-08-05T16:46:04.580Z,1.77
2022-08-05T16:48:04.960Z,1.08
2022-08-05T16:50:31.531Z,1.95
2022-08-05T16:53:09.194Z,4.78
2022-08-05T16:55:46.771Z,1.00
2022-08-05T16:58:14.405Z,1.30
2022-08-05T17:00:41.017Z,2.40
2022-08-05T17:03:15.468Z,4.18
2022-08-05T17:05:50.252Z,7.43
2022-08-05T17:08:35.757Z,3.92
2022-08-05T17:11:08.220Z,7.20
2022-08-05T17:13:37.046Z,8.52
2022-08-05T17:16:26.764Z,2.45
2022-08-05T17:18:51.293Z,3.95
2022-08-05T17:21:17.851Z,5.18
2022-08-05T17:24:05.943Z,5.85
2022-08-05T17:26:32.502Z,9.07
2022-08-05T17:28:59.703Z,8.63
2022-08-05T17:31:41.246Z,2.13
2022-08-05T17:34:18.021Z,5.93
2022-08-05T17:36:44.801Z,3.55
2022-08-05T17:39:24.100Z,3.45
2022-08-05T17:42:19.103Z,4.20
2022-08-05T17:44:50.103Z,3.25
2022-08-05T17:47:21.770Z,3.88
2022-08-05T17:50:00.540Z,4.47
2022-08-05T17:52:53.024Z,5.63
2022-08-05T17:55:22.771Z,6.03
2022-08-05T17:57:54.344Z,8.63
2022-08-05T18:00:21.012Z,3.20
2022-08-05T18:02:55.251Z,7.38
2022-08-05T18:05:22.326Z,4.97
2022-08-05T18:07:52.425Z,5.43
2022-08-05T18:10:21.004Z,4.43
2022-08-05T18:12:48.667Z,5.53
2022-08-05T18:15:15.301Z,4.28
2022-08-05T18:17:59.133Z,6.30
2022-08-05T18:20:29.415Z,5.72
2022-08-05T18:23:00.713Z,5.25
2022-08-05T18:25:38.739Z,4.35
2022-08-05T18:28:06.017Z,3.60
2022-08-05T18:30:33.274Z,5.00
2022-08-05T18:33:00.153Z,4.50
2022-08-05T18:35:28.306Z,8.02
2022-08-05T18:38:16.497Z,6.55
2022-08-05T18:41:58.405Z,5.95
2022-08-05T18:43:38.010Z,6.13
2022-08-05T18:46:09.607Z,5.35
2022-08-05T18:48:36.777Z,6.05
2022-08-05T18:52:05.358Z,8.70
2022-08-05T18:54:14.146Z,4.93
2022-08-05T18:56:40.645Z,3.38
2022-08-05T18:59:41.773Z,4.22
2022-08-05T19:01:58.531Z,5.55
2022-08-05T19:04:25.693Z,4.05
2022-08-05T19:06:53.850Z,4.72
2022-08-05T19:09:21.437Z,4.00
2022-08-05T19:11:59.244Z,6.38
2022-08-05T19:14:44.705Z,3.30
2022-08-05T19:17:14.397Z,4.45
2022-08-05T19:19:46.653Z,3.55
2022-08-05T19:22:17.178Z,4.55
2022-08-05T19:24:54.155Z,3.78
2022-08-05T19:27:23.035Z,3.80
2022-08-05T19:29:50.006Z,3.30
2022-08-05T19:32:16.605Z,3.55
2022-08-05T19:34:55.076Z,4.18
2022-08-05T19:37:29.945Z,3.08
2022-08-05T19:40:01.964Z,5.53
2022-08-05T19:42:35.864Z,7.47
2022-08-05T19:45:06.108Z,3.80
2022-08-05T19:47:33.422Z,5.38
2022-08-05T19:50:03.292Z,3.33
2022-08-05T19:52:31.587Z,2.95
2022-08-05T19:55:07.139Z,5.53
2022-08-05T19:58:06.781Z,3.20
2022-08-05T20:00:35.159Z,5.35
2022-08-05T20:03:01.733Z,3.80
2022-08-05T20:05:43.416Z,5.53
2022-08-05T20:08:17.352Z,5.53
2022-08-05T20:10:43.981Z,4.75
2022-08-05T20:13:12.137Z,4.47
2022-08-05T20:15:51.612Z,1.67
2022-08-05T20:18:33.408Z,6.03
2022-08-05T20:21:04.608Z,4.25
2022-08-05T20:23:39.431Z,2.88
2022-08-05T20:26:17.697Z,3.60
2022-08-05T20:28:45.300Z,5.30
2022-08-05T20:31:11.982Z,4.05
2022-08-05T20:33:38.714Z,3.65
2022-08-05T20:36:10.240Z,2.08
2022-08-05T20:38:37.978Z,4.38
2022-08-05T20:41:08.071Z,3.72
2022-08-05T20:44:00.478Z,1.88
2022-08-05T20:46:25.218Z,3.60
2022-08-05T20:48:52.214Z,2.42
2022-08-05T20:51:18.909Z,1.30
2022-08-05T20:53:56.399Z,3.47
2022-08-05T20:56:28.177Z,2.50
2022-08-05T20:58:55.702Z,3.60
2022-08-05T21:01:38.609Z,3.58
2022-08-05T21:04:10.409Z,2.33
2022-08-05T21:06:45.283Z,6.07
2022-08-05T21:09:14.785Z,3.53
2022-08-05T21:12:10.833Z,2.13
2022-08-05T21:14:34.638Z,3.55
2022-08-05T21:17:05.416Z,3.78
2022-08-05T21:19:47.106Z,5.15
2022-08-05T21:22:23.046Z,4.03
2022-08-05T21:24:51.935Z,4.90
2022-08-05T21:27:18.891Z,2.13
2022-08-05T21:29:48.281Z,2.63
2022-08-05T21:32:17.146Z,3.60
2022-08-05T21:35:08.974Z,1.58
2022-08-05T21:37:33.902Z,4.78
2022-08-05T21:40:03.487Z,8.10
2022-08-05T21:42:44.342Z,1.10
2022-08-05T21:45:11.687Z,3.05
2022-08-05T21:47:56.671Z,3.40
2022-08-05T21:50:24.391Z,2.80
2022-08-05T21:52:51.068Z,3.45
2022-08-05T21:55:42.958Z,3.58
2022-08-05T21:58:05.805Z,3.30
2022-08-05T22:00:32.459Z,2.90
2022-08-05T22:02:59.794Z,1.27
2022-08-05T22:05:27.494Z,3.35
2022-08-05T22:08:02.088Z,3.63
2022-08-05T22:10:29.333Z,2.30
2022-08-05T22:12:59.194Z,5.20
2022-08-05T22:16:01.911Z,3.58
2022-08-05T22:18:33.843Z,3.40
2022-08-05T22:21:00.762Z,5.43
2022-08-05T22:24:00.906Z,2.67
2022-08-05T22:26:49.975Z,4.00
2022-08-05T22:29:17.650Z,6.10
2022-08-05T22:31:45.794Z,4.35
2022-08-05T22:34:28.356Z,4.57
2022-08-05T22:36:55.974Z,3.72
2022-08-05T22:39:22.637Z,5.50
2022-08-05T22:42:10.152Z,5.10
2022-08-05T22:44:36.263Z,3.35
2022-08-05T22:47:05.666Z,3.17
2022-08-05T22:50:21.040Z,4.60
2022-08-05T22:52:30.567Z,5.45
2022-08-05T22:54:59.541Z,4.65
2022-08-05T22:57:26.734Z,5.03
2022-08-05T22:59:54.339Z,2.97
2022-08-05T23:02:29.756Z,4.75
2022-08-05T23:05:01.884Z,5.22
2022-08-05T23:07:31.659Z,4.63
2022-08-05T23:10:01.751Z,6.57
2022-08-05T23:12:32.711Z,6.45
2022-08-05T23:15:03.010Z,5.30
2022-08-05T23:17:34.389Z,5.07
2022-08-05T23:22:31.042Z,4.25
2022-08-05T23:24:57.821Z,6.13
2022-08-05T23:27:31.469Z,11.18
2022-08-05T23:30:11.473Z,4.10
2022-08-05T23:32:38.037Z,4.72
2022-08-05T23:37:40.947Z,5.60
2022-08-05T23:40:10.898Z,10.77
2022-08-05T23:42:38.452Z,7.43
2022-08-05T23:45:14.109Z,4.45
2022-08-05T23:47:47.876Z,4.30
2022-08-05T23:50:15.014Z,5.35
2022-08-05T23:52:49.657Z,7.38
2022-08-05T23:55:18.663Z,6.82
2022-08-05T23:57:48.961Z,7.07
